Grande Prairie Airport
CYQU : now visible

Airfield :











YOU CAN JOIN US ON...

 
LOGIN :

Register | Disclaimer

   EN    FR    IT 

 









Legend :    VFR   Marginal VFR   IFR   Intensive IFR   Very Intensive IFR
Visi :
Ceiling :
>= 8 km
>= 3000ft
5 to 8 km
1000 to 3000 ft
1500m to 5 km
500 to 1000 ft
800 to 1500m
200 to 500 ft
< 800m
< 200 ft
Symbols :   Thunderstorms  Fog  Heavy snow  Heavy precipitations  Wind > 20 kt






- Airport Elevation : 2195 ft
- IATA code : YQU


CYQU - Grande Prairie

CURRENT METAR :
  • 260400Z 24014KT 25SM FEW100 SCT240 13/02 A2979 RMK AC2CI1 SLP100 DENSITY ALT 2600FT

EXPIRED METARs :
  • 260300Z 24015G23KT 25SM FEW080 SCT220 14/02 A2978 RMK AC2CI2 SLP097 DENSITY ALT 2800FT
  • 260200Z 24016G23KT 25SM SCT080 BKN220 17/02 A2977 RMK CU4CI1 SLP091 DENSITY ALT 3100FT

TAF TAF CYQU
Valid from the 26 at 01:00 until the 26 at 13:00 UTC


260038Z 2601/2613 25020G30KT P6SM SCT080 BKN220
TEMPO 2601/2603 BKN080 BKN220
BECMG 2601/2603 26015KT
FM260600 25010KT P6SM BKN220 RMK NXT FCST BY 260700Z
CZEG FIR / North America



MET'MAP, your aeronautical weather chart ! - Copyright ORBIFLY December 2007 - Disclaimer

ORBIFLY MET'MAP TEAM :

Programming & Development : Alexandra Zaïnal
Concept & original design : Baudouin d'Aumeries
Assistance for programming : Marc-Olivier Méhu
Technical & hardware support : Manuel Goepfert

Contact : metmap@orbifly.com




SOURCES & CREDITS :

   NOAA       Earth
Advisory